Time;durP1;ratioP1;P1;durP2;ratioP2;P2;SDS_P1;SDS_P2;PMS_P1;PMS_P2;Temp;Humidity;BMP_temperature;BMP_pressure;BME280_temperature;BME280_humidity;BME280_pressure;Samples;Min_cycle;Max_cycle;Signal;HPM_P1;HPM_P2
2021/10/23 00:02:23;;;;;;;24.15;18.65;;;;;;;12.41;86.07;100723.19;5011374;28;20033;-65
2021/10/23 00:04:49;;;;;;;24.88;18.05;;;;;;;12.80;84.96;100789.22;5011314;28;20029;-67
2021/10/23 00:07:14;;;;;;;25.95;19.83;;;;;;;12.57;86.61;100784.16;5011768;28;20032;-67
2021/10/23 00:09:40;;;;;;;22.88;18.77;;;;;;;12.48;87.25;100791.59;5011625;28;20069;-69
2021/10/23 00:12:05;;;;;;;23.77;19.52;;;;;;;12.39;88.58;100783.53;5011460;28;20472;-73
2021/10/23 00:14:31;;;;;;;26.42;20.45;;;;;;;12.44;88.95;100800.97;5011448;28;20041;-68
2021/10/23 00:16:57;;;;;;;24.33;19.23;;;;;;;12.43;88.97;100800.94;5011626;28;20053;-66
2021/10/23 00:19:22;;;;;;;23.00;19.00;;;;;;;12.26;87.02;100764.09;5011481;28;20022;-69
2021/10/23 00:21:48;;;;;;;23.25;19.55;;;;;;;12.12;89.09;100795.56;5011256;28;20034;-67
2021/10/23 00:24:13;;;;;;;25.88;19.95;;;;;;;12.12;90.36;100795.56;5010489;28;20473;-70
2021/10/23 00:26:39;;;;;;;23.73;19.42;;;;;;;12.16;89.92;100795.66;5011863;28;20497;-67
2021/10/23 00:29:04;;;;;;;28.02;20.17;;;;;;;12.11;87.89;100791.22;5011436;28;20026;-66
2021/10/23 00:31:30;;;;;;;27.23;20.10;;;;;;;11.94;87.62;100756.06;5011536;28;20484;-69
2021/10/23 00:33:55;;;;;;;28.80;19.75;;;;;;;12.28;88.40;100790.91;5014618;28;20025;-68
2021/10/23 00:36:20;;;;;;;23.95;19.42;;;;;;;12.24;88.87;100786.47;5015500;28;20048;-67
2021/10/23 00:38:47;;;;;;;24.05;19.63;;;;;;;12.16;88.66;100786.16;5015664;28;20018;-69
2021/10/23 00:41:13;;;;;;;28.08;19.00;;;;;;;12.19;88.43;100788.00;5015565;28;20084;-67
2021/10/23 00:43:44;;;;;;;25.45;19.13;;;;;;;12.22;87.52;100781.22;5015561;28;20549;-68
2021/10/23 00:46:11;;;;;;;22.08;17.58;;;;;;;12.17;88.01;100771.53;5015544;28;20030;-68
2021/10/23 00:48:36;;;;;;;21.02;17.65;;;;;;;12.11;87.16;100756.66;5015073;28;20514;-68
2021/10/23 00:51:01;;;;;;;19.85;17.20;;;;;;;12.23;86.73;100767.44;5015115;28;20105;-65
2021/10/23 00:53:27;;;;;;;19.95;17.33;;;;;;;12.05;85.86;100744.41;5015346;28;20033;-70
2021/10/23 00:55:53;;;;;;;23.35;17.73;;;;;;;12.18;85.38;100783.66;5014834;28;20104;-67
2021/10/23 00:58:19;;;;;;;22.05;17.42;;;;;;;12.16;85.25;100772.38;5015410;28;20025;-67
2021/10/23 01:00:45;;;;;;;24.45;17.23;;;;;;;12.14;84.68;100768.00;5014920;28;20025;-65
2021/10/23 01:03:10;;;;;;;18.27;15.27;;;;;;;12.13;84.44;100755.03;5014292;28;20518;-65
2021/10/23 01:05:36;;;;;;;18.90;15.40;;;;;;;12.17;86.10;100763.78;5014943;28;20399;-67
2021/10/23 01:08:01;;;;;;;19.33;15.95;;;;;;;12.01;85.44;100746.81;5014895;28;20034;-65
2021/10/23 01:10:27;;;;;;;21.00;17.05;;;;;;;12.00;85.99;100766.66;5011760;28;20048;-65
2021/10/23 01:12:52;;;;;;;23.02;16.77;;;;;;;11.71;87.72;100735.38;5014969;28;20034;-65
2021/10/23 01:15:26;;;;;;;20.90;16.52;;;;;;;11.86;88.07;100771.28;5014822;28;20037;-66
2021/10/23 01:17:54;;;;;;;21.90;15.73;;;;;;;11.77;88.13;100763.19;5014776;28;20484;-66
2021/10/23 01:20:21;;;;;;;20.38;16.67;;;;;;;11.75;88.02;100765.72;5014783;28;20412;-65
2021/10/23 01:22:48;;;;;;;19.55;17.10;;;;;;;11.68;88.18;100776.66;5014741;28;20037;-66
2021/10/23 01:25:14;;;;;;;22.70;17.63;;;;;;;11.61;88.85;100772.97;5014747;28;20111;-67
2021/10/23 01:27:40;;;;;;;26.52;17.35;;;;;;;11.50;88.80;100763.91;5014633;28;20069;-66
2021/10/23 01:30:09;;;;;;;21.17;17.35;;;;;;;11.57;88.91;100777.97;5014243;28;20477;-65
2021/10/23 01:32:34;;;;;;;19.00;16.20;;;;;;;11.53;88.38;100768.34;5014450;28;20089;-66
2021/10/23 01:35:00;;;;;;;19.92;15.63;;;;;;;11.38;88.76;100774.69;5014539;28;20033;-66
2021/10/23 01:37:39;;;;;;;19.42;15.88;;;;;;;11.38;88.78;100768.63;5014016;28;20065;-65
2021/10/23 01:40:07;;;;;;;18.75;15.65;;;;;;;11.26;89.17;100776.78;5014413;28;20041;-68
2021/10/23 01:42:33;;;;;;;19.52;15.50;;;;;;;11.14;89.72;100779.75;5014614;28;20029;-65
2021/10/23 01:44:59;;;;;;;21.38;15.98;;;;;;;11.10;90.20;100772.72;5013643;28;20053;-66
2021/10/23 01:47:24;;;;;;;20.80;14.95;;;;;;;10.72;89.72;100689.44;5013940;28;20030;-71
2021/10/23 01:49:50;;;;;;;18.48;16.05;;;;;;;11.23;88.86;100776.69;5014103;28;20033;-69
2021/10/23 01:52:15;;;;;;;19.63;14.98;;;;;;;11.14;88.90;100784.91;5014375;28;20477;-67
2021/10/23 01:54:41;;;;;;;18.08;15.43;;;;;;;10.74;91.03;100779.06;5013934;28;20468;-66
2021/10/23 01:57:07;;;;;;;19.08;16.08;;;;;;;10.27;91.87;100703.94;5014623;28;20117;-65
2021/10/23 01:59:32;;;;;;;19.35;16.38;;;;;;;10.84;91.10;100786.34;5013753;28;20239;-65
2021/10/23 02:01:58;;;;;;;19.13;16.17;;;;;;;10.89;90.79;100777.91;5013204;28;20041;-67
2021/10/23 02:04:23;;;;;;;22.80;16.73;;;;;;;10.91;90.56;100781.44;5014210;28;20030;-66
2021/10/23 02:06:49;;;;;;;21.70;16.30;;;;;;;10.92;90.62;100784.06;5013537;28;20037;-66
2021/10/23 02:09:14;;;;;;;19.95;17.13;;;;;;;10.90;90.80;100779.66;5013972;28;20030;-66
2021/10/23 02:11:40;;;;;;;21.30;17.15;;;;;;;10.82;90.85;100782.81;5012801;28;20040;-66
2021/10/23 02:14:05;;;;;;;19.60;16.75;;;;;;;10.87;90.84;100782.13;5013782;28;20030;-65
2021/10/23 02:16:31;;;;;;;21.02;15.98;;;;;;;10.81;91.25;100783.63;5013535;28;20053;-66
2021/10/23 02:18:56;;;;;;;19.92;17.58;;;;;;;10.78;91.81;100791.25;5013711;28;20117;-66
2021/10/23 02:21:22;;;;;;;24.05;17.73;;;;;;;10.79;92.17;100793.03;5013335;28;20033;-64
2021/10/23 02:23:47;;;;;;;23.80;17.58;;;;;;;10.76;92.43;100800.63;5013657;28;20491;-68
2021/10/23 02:26:13;;;;;;;20.58;17.00;;;;;;;10.60;92.29;100769.84;5013557;28;20026;-68
2021/10/23 02:28:39;;;;;;;20.73;17.02;;;;;;;10.35;93.53;100784.25;5013330;28;20049;-67
2021/10/23 02:31:04;;;;;;;21.40;16.98;;;;;;;10.00;94.19;100735.47;5013457;28;20029;-67
2021/10/23 02:33:30;;;;;;;20.77;16.92;;;;;;;10.35;94.21;100794.56;5013319;28;20046;-71
2021/10/23 02:35:55;;;;;;;29.83;17.92;;;;;;;9.59;94.94;100694.97;5027528;28;20041;-64
2021/10/23 02:38:21;;;;;;;22.45;17.50;;;;;;;10.04;94.81;100760.59;5012974;28;20030;-66
2021/10/23 02:40:46;;;;;;;23.98;18.13;;;;;;;10.39;93.72;100803.38;5013078;28;20022;-68
2021/10/23 02:43:12;;;;;;;20.98;17.15;;;;;;;10.45;92.29;100801.06;5013233;28;20053;-66
2021/10/23 02:45:37;;;;;;;21.73;18.17;;;;;;;10.43;92.45;100805.25;5013044;28;20022;-68
2021/10/23 02:48:03;;;;;;;26.05;18.17;;;;;;;10.47;92.58;100797.72;5013205;28;20053;-68
2021/10/23 02:50:29;;;;;;;26.20;17.25;;;;;;;10.48;92.42;100802.06;5012968;28;20104;-66
2021/10/23 02:52:54;;;;;;;24.77;17.58;;;;;;;10.53;92.22;100797.13;5013501;28;20076;-64
2021/10/23 02:55:20;;;;;;;21.10;16.70;;;;;;;10.57;90.75;100800.72;5012000;28;20040;-65
2021/10/23 02:57:46;;;;;;;24.35;17.23;;;;;;;10.54;91.14;100800.56;5012714;28;20471;-66
2021/10/23 03:00:12;;;;;;;23.08;17.52;;;;;;;10.51;90.25;100807.34;5012092;28;20022;-67
2021/10/23 03:02:37;;;;;;;33.70;20.27;;;;;;;10.50;90.43;100800.44;5012496;28;20034;-67
2021/10/23 03:05:05;;;;;;;175.02;76.30;;;;;;;10.50;91.18;100810.78;5012509;28;20030;-67
2021/10/23 03:07:31;;;;;;;134.50;70.22;;;;;;;10.53;91.69;100807.44;5012495;28;20022;-67
2021/10/23 03:09:56;;;;;;;43.95;27.15;;;;;;;9.92;91.51;100711.06;5012311;28;20105;-65
2021/10/23 03:12:22;;;;;;;34.60;23.00;;;;;;;10.41;92.34;100806.91;5012468;28;20117;-66
2021/10/23 03:14:47;;;;;;;31.80;21.10;;;;;;;10.37;92.60;100808.47;5012784;28;20030;-70
2021/10/23 03:17:13;;;;;;;35.92;23.58;;;;;;;10.03;92.14;100778.56;5012468;28;20057;-67
2021/10/23 03:19:38;;;;;;;72.68;46.17;;;;;;;10.26;92.45;100820.00;5012502;28;20076;-66
2021/10/23 03:22:04;;;;;;;45.85;28.65;;;;;;;10.31;92.42;100806.47;5012493;28;20036;-69
2021/10/23 03:24:29;;;;;;;33.58;22.73;;;;;;;10.38;92.11;100801.59;5012654;28;20431;-67
2021/10/23 03:26:55;;;;;;;28.17;19.52;;;;;;;10.34;92.16;100816.03;5011724;28;20029;-66
2021/10/23 03:29:20;;;;;;;25.10;19.33;;;;;;;10.33;92.44;100817.75;5011030;28;20034;-66
2021/10/23 03:31:46;;;;;;;29.48;21.55;;;;;;;10.36;94.00;100802.41;5012216;28;20026;-69
2021/10/23 03:34:11;;;;;;;30.55;21.90;;;;;;;10.43;94.42;100813.91;5012302;28;20033;-67
2021/10/23 03:36:37;;;;;;;30.88;20.48;;;;;;;10.23;93.44;100789.78;5012352;28;20033;-70
2021/10/23 03:39:03;;;;;;;31.85;21.17;;;;;;;10.36;93.66;100817.03;5012131;28;20112;-67
2021/10/23 03:41:29;;;;;;;40.88;21.98;;;;;;;10.31;94.58;100808.19;5011692;28;20061;-65
2021/10/23 03:43:54;;;;;;;31.00;23.17;;;;;;;10.42;94.38;100822.44;5010593;28;20072;-67
2021/10/23 03:46:20;;;;;;;33.08;22.85;;;;;;;10.33;93.22;100806.53;5012459;28;20025;-69
2021/10/23 03:48:45;;;;;;;35.65;22.35;;;;;;;10.00;94.88;100830.03;5012185;28;20453;-68
2021/10/23 03:51:11;;;;;;;52.25;22.23;;;;;;;9.30;96.72;100753.81;5012443;28;20049;-68
2021/10/23 03:53:36;;;;;;;36.70;21.65;;;;;;;9.74;97.72;100829.72;5012065;28;20026;-66
2021/10/23 03:56:02;;;;;;;32.17;22.10;;;;;;;9.82;97.26;100827.47;5004830;28;20075;-70
2021/10/23 03:58:27;;;;;;;31.00;19.98;;;;;;;9.76;97.14;100827.19;5010737;28;20051;-65
2021/10/23 04:00:53;;;;;;;41.10;20.05;;;;;;;9.22;96.50;100717.38;5011170;28;20029;-66
2021/10/23 04:03:18;;;;;;;26.38;20.70;;;;;;;9.80;96.40;100819.69;5011808;28;20746;-67
2021/10/23 04:05:44;;;;;;;28.13;20.20;;;;;;;9.84;95.88;100820.72;5011759;28;20030;-67
2021/10/23 04:08:09;;;;;;;28.77;20.15;;;;;;;9.87;95.44;100820.88;5010840;28;20036;-67
2021/10/23 04:10:35;;;;;;;24.65;20.15;;;;;;;9.93;95.33;100818.56;5011401;28;20036;-67
2021/10/23 04:13:02;;;;;;;32.28;20.40;;;;;;;9.91;94.92;100811.56;5011759;28;20487;-67
2021/10/23 04:15:27;;;;;;;30.42;20.95;;;;;;;9.88;94.97;100820.94;5011561;28;20040;-72
2021/10/23 04:17:52;;;;;;;28.67;21.42;;;;;;;9.36;94.92;100729.19;5011973;28;20080;-65
2021/10/23 04:20:18;;;;;;;29.20;20.45;;;;;;;9.30;94.54;100734.06;5011692;28;20029;-67
2021/10/23 04:22:43;;;;;;;29.00;21.90;;;;;;;9.76;95.33;100825.53;5011576;28;20476;-70
2021/10/23 04:25:09;;;;;;;37.20;22.23;;;;;;;9.81;95.22;100821.47;5011572;28;20025;-67
2021/10/23 04:27:35;;;;;;;44.70;24.00;;;;;;;9.90;94.70;100823.56;5011258;28;20034;-64
2021/10/23 04:30:00;;;;;;;62.92;28.75;;;;;;;9.96;94.32;100833.28;5011315;28;20087;-65
2021/10/23 04:32:26;;;;;;;53.67;30.15;;;;;;;9.80;93.75;100823.97;5011341;28;20025;-68
2021/10/23 04:34:51;;;;;;;46.10;24.92;;;;;;;9.79;94.49;100822.19;5011574;28;20030;-66
2021/10/23 04:37:17;;;;;;;40.15;24.42;;;;;;;9.54;95.41;100816.81;5011203;28;20030;-68
2021/10/23 04:39:42;;;;;;;36.05;24.60;;;;;;;9.45;96.73;100820.66;5011644;28;20037;-65
2021/10/23 04:42:08;;;;;;;27.60;24.63;;;;;;;9.60;96.83;100836.81;5011144;28;20037;-64
2021/10/23 04:44:34;;;;;;;49.20;26.98;;;;;;;9.43;96.04;100789.63;5011474;28;20054;-67
2021/10/23 04:46:59;;;;;;;58.15;25.88;;;;;;;9.67;95.53;100840.56;5011337;28;20369;-66
2021/10/23 04:49:24;;;;;;;50.38;24.65;;;;;;;9.60;95.68;100841.97;5011514;28;20373;-67
2021/10/23 04:51:50;;;;;;;61.92;23.10;;;;;;;9.18;97.61;100844.28;5011470;28;20037;-68
2021/10/23 04:54:16;;;;;;;26.88;23.40;;;;;;;9.06;100.00;100845.44;5011393;28;20515;-66
2021/10/23 04:56:41;;;;;;;74.72;24.60;;;;;;;9.31;99.81;100841.47;5011380;28;20455;-64
2021/10/23 04:59:06;;;;;;;91.63;24.08;;;;;;;9.44;98.88;100842.94;5011425;28;20447;-66
2021/10/23 05:01:32;;;;;;;64.13;25.98;;;;;;;9.51;98.21;100850.16;5011289;28;20109;-68
2021/10/23 05:03:57;;;;;;;172.43;26.63;;;;;;;8.96;98.48;100763.41;5011410;28;20033;-67
2021/10/23 05:06:23;;;;;;;92.50;26.30;;;;;;;9.07;98.89;100774.19;5010872;28;20499;-66
2021/10/23 05:08:48;;;;;;;87.28;28.70;;;;;;;9.57;98.44;100851.25;5011113;28;20407;-65
2021/10/23 05:11:14;;;;;;;90.68;32.38;;;;;;;9.65;97.92;100853.38;5010439;28;20381;-66
2021/10/23 05:13:39;;;;;;;48.85;26.65;;;;;;;9.64;97.91;100851.59;5011510;28;20033;-66
2021/10/23 05:16:05;;;;;;;83.15;26.40;;;;;;;9.57;97.69;100857.31;5010872;28;20022;-66
2021/10/23 05:18:30;;;;;;;36.70;25.77;;;;;;;9.52;97.66;100846.78;5011960;28;20420;-66
2021/10/23 05:20:56;;;;;;;37.40;28.10;;;;;;;9.67;97.64;100854.34;5013617;28;20468;-66
2021/10/23 05:23:21;;;;;;;44.78;28.08;;;;;;;9.40;97.73;100812.69;5013486;28;20396;-67
2021/10/23 05:25:47;;;;;;;41.38;26.30;;;;;;;9.59;98.09;100865.97;5014544;28;20057;-66
2021/10/23 05:28:13;;;;;;;44.70;25.92;;;;;;;9.46;98.59;100854.22;5014520;28;20034;-66
2021/10/23 05:30:38;;;;;;;45.75;22.50;;;;;;;9.17;100.00;100894.00;5014527;28;20458;-67
2021/10/23 05:33:04;;;;;;;43.75;23.80;;;;;;;9.26;100.00;100891.00;5014799;28;20472;-66
2021/10/23 05:35:29;;;;;;;38.00;26.65;;;;;;;9.39;100.00;100881.41;5014076;28;20034;-67
2021/10/23 05:37:55;;;;;;;44.20;26.08;;;;;;;9.26;100.00;100907.38;5014232;28;20053;-66
2021/10/23 05:40:21;;;;;;;69.65;25.45;;;;;;;8.81;100.00;100917.09;5013936;28;20030;-66
2021/10/23 05:42:46;;;;;;;61.72;23.90;;;;;;;8.53;100.00;100890.81;5014223;28;20033;-71
2021/10/23 05:45:12;;;;;;;42.00;23.70;;;;;;;8.08;100.00;100829.31;5014384;28;20045;-67
2021/10/23 05:47:37;;;;;;;32.10;26.02;;;;;;;8.70;100.00;100930.31;5013092;28;20030;-64
2021/10/23 05:50:03;;;;;;;36.72;26.48;;;;;;;8.92;100.00;100925.38;5014268;28;20037;-66
2021/10/23 05:52:29;;;;;;;51.60;27.70;;;;;;;9.00;100.00;100927.53;5008880;28;20038;-68
2021/10/23 05:54:55;;;;;;;33.60;26.08;;;;;;;9.23;100.00;100938.13;5013079;28;20033;-68
2021/10/23 05:57:20;;;;;;;42.13;27.20;;;;;;;9.34;100.00;100936.09;5013826;28;20028;-66
2021/10/23 05:59:46;;;;;;;36.95;28.23;;;;;;;9.44;100.00;100933.13;5013679;28;20040;-67
2021/10/23 06:02:25;;;;;;;36.33;26.52;;;;;;;9.41;100.00;100930.44;5031003;28;20045;-66
2021/10/23 06:04:56;;;;;;;36.25;27.60;;;;;;;9.54;100.00;100929.31;5029928;28;20025;-66
2021/10/23 06:07:24;;;;;;;34.10;25.92;;;;;;;9.59;100.00;100945.03;5013980;28;20048;-66
2021/10/23 06:09:50;;;;;;;46.25;26.73;;;;;;;9.47;100.00;100941.03;5030628;28;20045;-64
2021/10/23 06:12:17;;;;;;;36.22;25.67;;;;;;;9.36;100.00;100919.00;5030796;28;20042;-68
2021/10/23 06:14:42;;;;;;;27.67;24.42;;;;;;;9.73;100.00;100956.00;5030862;28;20033;-64
2021/10/23 06:17:08;;;;;;;31.23;23.20;;;;;;;9.84;100.00;100949.66;5030288;28;20388;-68
2021/10/23 06:19:35;;;;;;;29.25;26.05;;;;;;;9.95;100.00;100963.06;5028499;28;20488;-67
2021/10/23 06:22:01;;;;;;;35.90;25.30;;;;;;;9.86;100.00;100943.75;5030515;28;20044;-66
2021/10/23 06:24:30;;;;;;;34.33;27.73;;;;;;;9.91;100.00;100961.16;5030738;28;20144;-67
2021/10/23 06:26:56;;;;;;;27.67;24.15;;;;;;;9.97;100.00;100967.47;5030469;28;20432;-67
2021/10/23 06:29:22;;;;;;;28.08;24.92;;;;;;;10.01;100.00;100971.09;5030215;28;20045;-67
2021/10/23 06:31:47;;;;;;;29.73;25.75;;;;;;;10.09;100.00;100961.13;5029647;28;20030;-66
2021/10/23 06:34:13;;;;;;;28.42;24.35;;;;;;;9.75;100.00;100890.78;5014172;28;20085;-67
2021/10/23 06:36:38;;;;;;;27.83;24.13;;;;;;;10.28;100.00;100960.28;5012669;28;20033;-68
2021/10/23 06:39:04;;;;;;;25.00;22.30;;;;;;;10.35;100.00;100967.50;5012914;28;20041;-67
2021/10/23 06:41:30;;;;;;;25.40;22.80;;;;;;;10.49;100.00;100968.16;5013244;28;20037;-67
2021/10/23 06:43:56;;;;;;;27.77;24.40;;;;;;;10.39;100.00;100946.19;5011297;28;20026;-71
2021/10/23 06:46:23;;;;;;;28.75;25.52;;;;;;;10.54;100.00;100978.69;5008686;28;20513;-68
2021/10/23 06:48:49;;;;;;;27.60;24.60;;;;;;;10.75;100.00;100964.16;5010328;28;20033;-66
2021/10/23 06:51:15;;;;;;;30.45;25.00;;;;;;;11.10;100.00;100969.09;5012796;28;20422;-67
2021/10/23 06:53:40;;;;;;;28.65;23.70;;;;;;;10.77;100.00;100885.03;5012547;28;20036;-64
2021/10/23 06:56:06;;;;;;;33.50;26.15;;;;;;;11.11;100.00;100904.53;5012631;28;20022;-64
2021/10/23 06:58:31;;;;;;;26.08;22.67;;;;;;;11.68;100.00;100964.59;5012713;28;20516;-67
2021/10/23 07:00:57;;;;;;;24.63;21.48;;;;;;;11.79;100.00;100978.84;5010649;28;20028;-67
2021/10/23 07:03:22;;;;;;;27.45;21.95;;;;;;;11.96;100.00;100983.00;5012805;28;20022;-66
2021/10/23 07:05:48;;;;;;;24.25;20.15;;;;;;;12.02;100.00;100994.41;5012015;28;20036;-66
2021/10/23 07:08:13;;;;;;;20.38;18.27;;;;;;;11.54;100.00;100917.47;5012241;28;20030;-67
2021/10/23 07:10:39;;;;;;;21.08;18.65;;;;;;;11.92;100.00;100994.00;5012619;28;20025;-66
2021/10/23 07:13:05;;;;;;;25.02;22.33;;;;;;;12.03;100.00;100984.13;5026641;28;20041;-66
2021/10/23 07:15:31;;;;;;;22.38;20.00;;;;;;;11.82;100.00;100987.59;5012029;28;20415;-67
2021/10/23 07:17:57;;;;;;;23.83;21.40;;;;;;;11.97;100.00;100996.81;5012246;28;20515;-66
2021/10/23 07:20:25;;;;;;;25.10;21.38;;;;;;;12.10;100.00;100996.50;5011806;28;20496;-65
2021/10/23 07:22:51;;;;;;;24.30;21.80;;;;;;;12.21;100.00;100998.59;5011151;28;20018;-67
2021/10/23 07:25:16;;;;;;;24.05;21.65;;;;;;;12.30;100.00;100998.97;5011424;28;20108;-67
2021/10/23 07:27:42;;;;;;;23.95;21.48;;;;;;;12.19;100.00;100995.09;5012222;28;20080;-65
2021/10/23 07:30:09;;;;;;;24.35;21.70;;;;;;;12.26;100.00;100984.13;5011659;28;20505;-66
2021/10/23 07:32:39;;;;;;;25.40;21.80;;;;;;;12.40;100.00;101001.06;5010928;28;20396;-68
2021/10/23 07:35:07;;;;;;;27.20;23.25;;;;;;;12.49;100.00;100997.09;5006374;28;20038;-68
2021/10/23 07:37:32;;;;;;;23.90;21.38;;;;;;;12.53;100.00;100975.66;5005625;28;20034;-67
2021/10/23 07:40:02;;;;;;;27.70;22.83;;;;;;;12.29;100.00;100898.81;5011808;28;20029;-69
2021/10/23 07:42:28;;;;;;;24.13;21.10;;;;;;;13.06;100.00;100970.59;5011446;28;20017;-66
2021/10/23 07:44:54;;;;;;;21.65;19.35;;;;;;;13.24;100.00;100979.03;5012272;28;20033;-67
2021/10/23 07:47:21;;;;;;;23.80;21.15;;;;;;;13.38;100.00;100981.25;5011872;28;20030;-66
2021/10/23 07:49:47;;;;;;;23.42;20.92;;;;;;;13.52;100.00;100979.09;5011523;28;20117;-67
2021/10/23 07:52:12;;;;;;;22.77;20.38;;;;;;;13.69;100.00;100956.31;5011758;28;20152;-66
2021/10/23 07:54:38;;;;;;;21.92;19.42;;;;;;;13.75;99.91;100951.31;5011467;28;20045;-68
2021/10/23 07:57:04;;;;;;;22.20;19.80;;;;;;;13.91;100.00;100961.34;5010036;28;20037;-67
2021/10/23 07:59:31;;;;;;;21.83;19.52;;;;;;;14.01;100.00;100959.06;5011237;28;20476;-66
2021/10/23 08:01:58;;;;;;;22.65;19.98;;;;;;;14.20;99.51;100976.06;5011697;28;20107;-68
2021/10/23 08:04:25;;;;;;;22.23;19.88;;;;;;;14.33;97.89;100978.19;5011777;28;20026;-66
2021/10/23 08:06:50;;;;;;;20.65;18.52;;;;;;;13.89;98.36;100905.03;5007949;28;20112;-67
2021/10/23 08:09:15;;;;;;;20.67;18.10;;;;;;;14.44;97.75;100985.41;5011548;28;20061;-66
2021/10/23 08:11:42;;;;;;;22.65;19.02;;;;;;;14.47;98.35;100969.94;5011566;28;20464;-66
2021/10/23 08:14:08;;;;;;;22.38;19.95;;;;;;;14.64;97.45;100994.69;5011787;28;20025;-67
2021/10/23 08:16:34;;;;;;;23.10;19.10;;;;;;;14.83;96.77;100996.09;5011354;28;20050;-68
2021/10/23 08:19:00;;;;;;;24.10;19.75;;;;;;;15.06;94.72;100989.78;5011804;28;20108;-71
2021/10/23 08:21:25;;;;;;;24.35;19.52;;;;;;;15.16;93.92;100994.38;5009369;28;20555;-67
2021/10/23 08:23:51;;;;;;;21.63;18.55;;;;;;;14.42;93.36;100857.19;5006028;28;20029;-68
2021/10/23 08:26:16;;;;;;;27.33;20.23;;;;;;;15.27;93.29;100977.34;5002171;28;20508;-67
2021/10/23 08:28:42;;;;;;;24.38;20.33;;;;;;;15.12;92.83;100924.94;5008023;28;20036;-67
2021/10/23 08:31:07;;;;;;;29.40;20.02;;;;;;;15.63;92.67;100983.44;5007973;28;20101;-68
2021/10/23 08:33:33;;;;;;;22.15;19.83;;;;;;;15.82;91.20;100984.78;5009933;28;20026;-69
2021/10/23 08:35:59;;;;;;;20.77;18.52;;;;;;;16.01;90.76;100988.69;5011498;28;20026;-66
2021/10/23 08:38:25;;;;;;;20.48;17.80;;;;;;;16.17;88.45;100980.41;5010954;28;20096;-67
2021/10/23 08:40:52;;;;;;;22.92;19.08;;;;;;;16.34;88.65;100988.56;5010956;28;20552;-67
2021/10/23 08:43:19;;;;;;;22.08;19.67;;;;;;;16.58;88.93;100987.31;5011199;28;20109;-67
2021/10/23 08:45:45;;;;;;;19.17;17.17;;;;;;;16.75;86.75;100986.81;5011062;28;20082;-67
2021/10/23 08:48:12;;;;;;;19.77;17.55;;;;;;;16.88;85.66;100972.25;5010421;28;20026;-66
2021/10/23 08:50:38;;;;;;;19.13;16.52;;;;;;;16.61;84.22;100898.78;5011344;28;20060;-69
2021/10/23 08:53:04;;;;;;;20.00;17.77;;;;;;;17.13;84.98;100977.13;5010952;28;20094;-68
2021/10/23 08:55:30;;;;;;;16.13;14.40;;;;;;;17.26;79.58;100949.50;5015036;28;20040;-67
2021/10/23 08:57:56;;;;;;;19.42;13.85;;;;;;;17.55;77.60;100969.13;5014646;28;20038;-67
2021/10/23 09:00:22;;;;;;;19.15;14.60;;;;;;;17.61;77.77;100966.63;5014528;28;20022;-67
2021/10/23 09:02:51;;;;;;;15.00;12.85;;;;;;;17.48;75.21;100947.25;5010225;28;20038;-68
2021/10/23 09:05:19;;;;;;;14.57;11.95;;;;;;;17.81;73.24;100966.03;5014926;28;20053;-67
2021/10/23 09:07:46;;;;;;;13.80;11.25;;;;;;;18.10;71.26;100967.38;5014970;28;20036;-67
2021/10/23 09:10:12;;;;;;;16.45;11.68;;;;;;;18.36;73.95;100955.53;5010651;28;20029;-67
2021/10/23 09:12:39;;;;;;;15.65;11.63;;;;;;;18.51;70.26;100950.47;5014646;28;20113;-66
2021/10/23 09:15:17;;;;;;;14.18;10.38;;;;;;;18.65;67.91;100955.84;5013471;28;20026;-67
2021/10/23 09:17:53;;;;;;;11.25;9.75;;;;;;;18.53;68.29;100964.44;5012938;28;20088;-67
2021/10/23 09:20:23;;;;;;;12.10;9.82;;;;;;;18.15;68.48;100870.75;5008522;28;20096;-67
2021/10/23 09:22:49;;;;;;;;;;;;;;;18.98;67.20;100951.91;5015003;28;20026;-67
2021/10/23 09:25:35;;;;;;;14.25;9.52;;;;;;;19.29;63.69;100941.72;5014322;28;20016;-65
2021/10/23 09:28:04;;;;;;;10.45;9.13;;;;;;;19.25;64.88;100945.16;5012525;28;20033;-66
2021/10/23 09:30:38;;;;;;;11.57;10.02;;;;;;;19.12;65.05;100941.56;5014421;28;20443;-68
2021/10/23 09:33:08;;;;;;;12.13;9.80;;;;;;;18.98;63.84;100896.06;5014042;28;20080;-67
2021/10/23 09:35:37;;;;;;;21.00;15.88;;;;;;;19.32;65.32;100930.41;5013870;28;20030;-67
2021/10/23 09:38:03;;;;;;;37.47;23.42;;;;;;;19.59;65.94;100945.44;5014352;28;20061;-68
2021/10/23 09:40:30;;;;;;;16.88;10.23;;;;;;;19.64;64.10;100943.72;5014508;28;20065;-67
2021/10/23 09:43:11;;;;;;;18.35;11.88;;;;;;;19.99;63.92;100945.72;5013781;28;20022;-68
2021/10/23 09:45:58;;;;;;;11.48;9.38;;;;;;;19.68;62.71;100871.28;5012192;28;20022;-67
2021/10/23 09:48:52;;;;;;;26.92;17.13;;;;;;;19.90;65.19;100942.19;4963790;28;20057;-69
2021/10/23 09:51:25;;;;;;;15.10;10.75;;;;;;;19.70;64.07;100922.81;4965950;28;20034;-67
2021/10/23 09:53:52;;;;;;;13.02;9.90;;;;;;;19.78;63.53;100935.09;4963669;28;20039;-68
2021/10/23 09:56:21;;;;;;;12.60;10.40;;;;;;;19.68;62.58;100911.44;4962700;28;20457;-66
2021/10/23 09:58:56;;;;;;;14.93;9.55;;;;;;;19.73;63.25;100927.19;4962256;28;20397;-67
2021/10/23 10:01:26;;;;;;;12.55;9.82;;;;;;;19.66;62.60;100933.25;4970782;28;20093;-66
2021/10/23 10:04:05;;;;;;;12.38;8.90;;;;;;;19.58;63.91;100904.41;4961640;28;20033;-67
2021/10/23 10:06:38;;;;;;;14.82;11.77;;;;;;;19.77;62.59;100921.09;4961644;28;20434;-67
2021/10/23 10:09:06;;;;;;;15.30;9.98;;;;;;;19.80;63.81;100918.53;4961936;28;20039;-68
2021/10/23 10:11:32;;;;;;;24.70;18.00;;;;;;;19.83;63.19;100923.78;4963547;28;20031;-67
2021/10/23 10:13:58;;;;;;;46.28;33.60;;;;;;;19.80;63.36;100899.28;4961842;28;20042;-69
2021/10/23 10:16:26;;;;;;;13.15;9.55;;;;;;;19.74;62.37;100879.19;4962472;28;20548;-68
2021/10/23 10:18:53;;;;;;;11.45;8.50;;;;;;;19.93;61.95;100908.16;4963482;28;20030;-65
2021/10/23 10:21:20;;;;;;;12.55;8.43;;;;;;;20.02;61.02;100913.41;4962218;28;20548;-67
2021/10/23 10:23:47;;;;;;;10.40;8.20;;;;;;;20.12;60.98;100906.47;4961525;28;20098;-69
2021/10/23 10:26:19;;;;;;;12.68;8.95;;;;;;;20.27;61.12;100910.91;4996480;28;20038;-70
2021/10/23 10:29:28;;;;;;;12.23;9.02;;;;;;;20.49;60.44;100907.50;5004108;28;20093;-67
2021/10/23 10:34:45;;;;;;;40.63;20.67;;;;;;;20.60;64.46;100904.91;5010926;28;20034;-67
2021/10/23 10:42:57;;;;;;;10.60;7.88;;;;;;;20.88;60.25;100899.72;5011532;28;20184;-67
2021/10/23 10:45:26;;;;;;;10.70;7.97;;;;;;;20.98;58.84;100904.09;5012490;28;20690;-67
2021/10/23 10:48:17;;;;;;;11.82;8.32;;;;;;;21.03;58.95;100905.88;5013404;28;20037;-66
2021/10/23 10:50:52;;;;;;;11.05;8.00;;;;;;;21.04;59.43;100898.00;5028898;28;20072;-67
2021/10/23 10:53:22;;;;;;;11.32;8.23;;;;;;;21.01;58.32;100898.00;5029887;28;20037;-67
2021/10/23 10:56:14;;;;;;;15.18;7.82;;;;;;;21.07;59.07;100905.00;5013520;28;20075;-67
2021/10/23 10:58:40;;;;;;;9.85;7.72;;;;;;;20.67;58.04;100835.84;5028685;28;20509;-69
2021/10/23 11:01:25;;;;;;;15.82;11.93;;;;;;;20.96;59.90;100904.97;5029820;28;20045;-67
2021/10/23 11:03:55;;;;;;;17.05;11.38;;;;;;;20.90;59.99;100903.25;5030073;28;20588;-66
2021/10/23 11:06:35;;;;;;;24.88;15.80;;;;;;;20.93;59.42;100902.38;5029298;28;20029;-66
2021/10/23 11:09:14;;;;;;;14.80;10.80;;;;;;;20.92;62.97;100903.25;5029737;28;20051;-67
2021/10/23 11:11:42;;;;;;;10.18;7.95;;;;;;;20.88;62.66;100896.25;5029770;28;20486;-67
2021/10/23 11:14:10;;;;;;;40.25;31.48;;;;;;;20.85;62.56;100891.88;5029941;28;20810;-67
2021/10/23 11:16:38;;;;;;;40.50;31.05;;;;;;;20.84;60.39;100890.97;5027200;28;20048;-67
2021/10/23 11:19:04;;;;;;;11.95;8.32;;;;;;;20.78;60.99;100888.34;5029760;28;20515;-66